Data for 02/23/2007

Time Sea-Level Adjusted Pressure Absolute Pressure Temperature Relative Humidity Dew Point   
(mb) (inHg) (mb) (inHg) (C) (F) (%) (C) (F)
00:05 1000 29.53 829 24.48 5.6 42.2 54 -3 26.5
00:10 1000 29.53 829 24.48 5.6 42.2 54 -2.9 26.7
00:15 1000 29.53 829 24.48 5.5 41.9 54 -2.9 26.7
00:20 1000 29.53 829 24.48 5.2 41.3 56 -2.8 27
00:25 1000 29.53 829 24.48 5 41 58 -2.6 27.3
00:30 1000 29.53 829 24.48 4.8 40.7 60 -2.4 27.8
00:35 1000 29.53 829 24.48 4.8 40.7 60 -2.3 27.8
00:40 1000 29.53 829 24.48 4.7 40.4 62 -2 28.4
00:45 1000 29.53 829 24.48 4.9 40.8 62 -1.7 28.9
00:50 999 29.5 829 24.48 5 40.9 62 -1.7 28.9
00:55 999 29.5 829 24.48 5 41 62 -1.6 29.2
01:00 999 29.5 828 24.45 5 40.9 63 -1.4 29.4
01:05 999 29.5 828 24.45 5 41 63 -1.5 29.4
01:10 999 29.5 828 24.45 5 40.9 63 -1.4 29.4
01:15 999 29.5 828 24.45 4.9 40.7 64 -1.3 29.7
01:20 999 29.5 828 24.45 4.9 40.9 61 -2 28.3
01:25 999 29.5 828 24.45 5.2 41.4 61 -1.7 28.9
01:30 999 29.5 828 24.45 5.2 41.3 63 -1.3 29.6
01:35 999 29.5 828 24.45 5 41.1 65 -1 30.2
01:40 999 29.5 828 24.45 4.9 40.8 65 -1.2 29.9
01:45 999 29.5 828 24.45 4.9 40.9 62 -1.7 28.9
01:50 999 29.5 828 24.45 5.2 41.3 63 -1.2 29.8
01:55 999 29.5 828 24.45 5.3 41.6 62 -1.3 29.7
02:00 999 29.5 828 24.45 5.3 41.5 64 -0.9 30.4
02:05 999 29.5 828 24.45 5 41 65 -1.1 30
02:10 999 29.5 828 24.45 5 41 65 -1 30.2
02:15 999 29.5 828 24.45 4.8 40.6 69 -0.5 31.1
02:20 999 29.5 828 24.45 4.5 40.1 72 -0.1 31.7
02:25 999 29.5 828 24.45 4.3 39.7 74 0 32
02:30 999 29.5 828 24.45 4.1 39.4 75 0.1 32.2
02:35 999 29.5 828 24.45 4 39.1 76 0.1 32.2
02:40 998 29.47 828 24.45 3.9 39 76 0 32.1
02:45 998 29.47 828 24.45 3.9 39 76 -0 32
02:50 998 29.47 828 24.45 3.9 39 76 0 32
02:55 998 29.47 828 24.45 3.8 38.9 76 -0.1 31.9
03:00 998 29.47 828 24.45 3.9 39.1 75 -0 32
03:05 999 29.5 828 24.45 3.8 38.9 76 -0 32
03:10 999 29.5 828 24.45 3.8 38.9 76 -0 31.9
03:15 999 29.5 828 24.45 3.9 39.1 74 -0.2 31.7
03:20 999 29.5 828 24.45 4.1 39.3 74 -0.2 31.7
03:25 999 29.5 829 24.48 3.3 38 79 0.1 32.1
03:30 1000 29.53 829 24.48 2.6 36.8 84 0.3 32.5
03:35 1000 29.53 829 24.48 2.2 35.9 87 0.3 32.5
03:40 1000 29.53 829 24.48 1.7 35.1 88 -0.1 31.8
03:45 1000 29.53 829 24.48 1.1 33.9 91 -0.2 31.6
03:50 1000 29.53 830 24.51 0.7 33.2 94 -0.2 31.6
03:55 1001 29.56 830 24.51 0.4 32.7 96 -0.3 31.5
04:00 1001 29.56 830 24.51 0.1 32.3 97 -0.3 31.4
04:05 1001 29.56 830 24.51 0.1 32.3 97 -0.3 31.4
04:10 1001 29.56 830 24.51 0.1 32.2 97 -0.3 31.5
04:15 1001 29.56 831 24.54 0.1 32.3 97 -0.3 31.5
04:20 1002 29.59 831 24.54 0.1 32.2 97 -0.3 31.4
04:25 1002 29.59 831 24.54 0.1 32.2 97 -0.3 31.5
04:30 1002 29.59 831 24.54 0.1 32.1 97 -0.3 31.4
04:35 1002 29.59 831 24.54 0.1 32.1 97 -0.3 31.4
04:40 1002 29.59 831 24.54 0.1 32.1 97 -0.3 31.4
04:45 1002 29.59 831 24.54 0.1 32.1 97 -0.3 31.4
04:50 1002 29.59 831 24.54 0.1 32.1 97 -0.4 31.3
04:55 1002 29.59 831 24.54 0.1 32.1 97 -0.4 31.3
05:00 1002 29.59 831 24.54 0.1 32.2 97 -0.4 31.3
05:05 1002 29.59 831 24.54 0.1 32.2 96 -0.4 31.3
05:10 1002 29.59 831 24.54 -0 32 97 -0.5 31.1
05:15 1002 29.59 831 24.54 -0.2 31.7 97 -0.6 30.9
05:20 1002 29.59 831 24.54 -0.2 31.6 97 -0.6 30.9
05:25 1002 29.59 831 24.54 -0.2 31.6 98 -0.6 31
05:30 1002 29.59 831 24.54 -0.2 31.6 98 -0.5 31.1
05:35 1002 29.59 831 24.54 -0.2 31.7 98 -0.5 31.1
05:40 1002 29.59 831 24.54 -0.2 31.6 98 -0.5 31.1
05:45 1002 29.59 831 24.54 -0.2 31.6 98 -0.5 31.1
05:50 1002 29.59 831 24.54 -0.2 31.6 98 -0.5 31.1
05:55 1002 29.59 831 24.54 -0.2 31.6 98 -0.5 31
06:00 1002 29.59 831 24.54 -0.2 31.7 97 -0.6 31
06:05 1002 29.59 831 24.54 0 32.1 96 -0.5 31.1
06:10 1002 29.59 831 24.54 0.1 32.2 95 -0.6 31
06:15 1002 29.59 831 24.54 0.1 32.2 95 -0.6 30.9
06:20 1002 29.59 831 24.54 0.1 32.2 94 -0.7 30.8
06:25 1002 29.59 831 24.54 0.1 32.2 93 -0.8 30.5
06:30 1002 29.59 831 24.54 0.3 32.6 92 -0.8 30.5
06:35 1002 29.59 831 24.54 0.3 32.6 91 -0.9 30.4
06:40 1002 29.59 831 24.54 0.5 32.9 89 -1.2 29.9
06:45 1002 29.59 831 24.54 0.5 33 89 -1 30.1
06:50 1002 29.59 831 24.54 0.5 33 90 -1 30.3
06:55 1002 29.59 831 24.54 0.4 32.8 90 -1 30.2
07:00 1002 29.59 831 24.54 0.4 32.8 89 -1.1 30
07:05 1002 29.59 831 24.54 0.3 32.5 91 -1.1 30.1
07:10 1002 29.59 832 24.57 0.1 32.3 92 -0.9 30.3
07:15 1002 29.59 832 24.57 -0.2 31.7 95 -0.9 30.4
07:20 1002 29.59 832 24.57 -0.2 31.6 96 -0.8 30.5
07:25 1002 29.59 832 24.57 -0.3 31.5 96 -0.9 30.5
07:30 1002 29.59 832 24.57 -0.2 31.6 96 -0.7 30.7
07:35 1002 29.59 832 24.57 -0.2 31.6 96 -0.7 30.7
07:40 1002 29.59 832 24.57 -0.3 31.5 97 -0.7 30.8
07:45 1002 29.59 832 24.57 -0.3 31.4 97 -0.7 30.7
07:50 1002 29.59 832 24.57 -0.4 31.4 98 -0.7 30.7
07:55 1002 29.59 832 24.57 -0.4 31.3 98 -0.7 30.7
08:00 1002 29.59 832 24.57 -0.4 31.4 98 -0.6 30.8
08:05 1002 29.59 832 24.57 -0.4 31.4 98 -0.7 30.8
08:10 1003 29.62 832 24.57 -0.3 31.5 98 -0.6 30.9
08:15 1003 29.62 832 24.57 -0.1 31.8 97 -0.5 31.2
08:20 1003 29.62 832 24.57 0 32 97 -0.4 31.2
08:25 1003 29.62 832 24.57 0.2 32.3 96 -0.3 31.4
08:30 1003 29.62 832 24.57 0.4 32.7 95 -0.3 31.4
08:35 1003 29.62 832 24.57 0.6 33.1 93 -0.4 31.2
08:40 1003 29.62 832 24.57 0.8 33.5 92 -0.4 31.3
08:45 1003 29.62 832 24.57 0.8 33.4 92 -0.5 31.2
08:50 1003 29.62 832 24.57 0.6 33.1 91 -0.7 30.7
08:55 1002 29.59 832 24.57 0.8 33.4 90 -0.7 30.7
09:00 1002 29.59 832 24.57 1.1 33.9 87 -0.8 30.6
09:05 1002 29.59 832 24.57 1.4 34.5 88 -0.5 31.2
09:10 1003 29.62 832 24.57 1.6 35 88 -0.1 31.7
09:15 1003 29.62 832 24.57 1.4 34.6 90 0 32
09:20 1003 29.62 832 24.57 1.1 34 91 -0.3 31.5
09:25 1003 29.62 832 24.57 1 33.8 92 -0.2 31.7
09:30 1003 29.62 832 24.57 1 33.8 90 -0.5 31.1
09:35 1003 29.62 832 24.57 1 33.8 90 -0.4 31.3
09:40 1003 29.62 832 24.57 1.3 34.3 89 -0.4 31.3
09:45 1003 29.62 832 24.57 1.5 34.7 87 -0.4 31.2
09:50 1003 29.62 832 24.57 1.7 35.1 85 -0.5 31
09:55 1003 29.62 832 24.57 1.9 35.4 86 -0.2 31.6
10:00 1003 29.62 832 24.57 1.7 35 84 -0.8 30.5
10:05 1003 29.62 832 24.57 1.7 35 84 -0.7 30.7
10:10 1003 29.62 832 24.57 1.9 35.3 84 -0.6 30.9
10:15 1003 29.62 832 24.57 1.9 35.4 84 -0.6 30.9
10:20 1003 29.62 832 24.57 2.2 36 83 -0.4 31.3
10:25 1003 29.62 832 24.57 2.3 36.1 81 -0.6 31
10:30 1003 29.62 832 24.57 2 35.6 81 -0.9 30.3
10:35 1003 29.62 832 24.57 1.8 35.3 80 -1.2 29.8
10:40 1003 29.62 832 24.57 1.8 35.3 80 -1.3 29.6
10:45 1003 29.62 832 24.57 1.8 35.3 80 -1.3 29.7
10:50 1003 29.62 832 24.57 1.9 35.4 79 -1.3 29.7
10:55 1003 29.62 832 24.57 2.3 36.1 77 -1.3 29.6
11:00 1003 29.62 832 24.57 2.2 36 78 -1.1 30
11:05 1003 29.62 832 24.57 2.1 35.8 77 -1.5 29.4
11:10 1003 29.62 832 24.57 2 35.6 78 -1.4 29.5
11:15 1003 29.62 832 24.57 2.4 36.3 78 -1.1 29.9
11:20 1003 29.62 832 24.57 2.4 36.3 77 -1.3 29.7
11:25 1003 29.62 832 24.57 2.6 36.7 77 -1.1 30.1
11:30 1003 29.62 832 24.57 3.3 38 74 -0.8 30.6
11:35 1003 29.62 832 24.57 3.3 37.9 77 -0.4 31.3
11:40 1003 29.62 832 24.57 2.8 37.1 80 -0.3 31.5
11:45 1003 29.62 832 24.57 2.5 36.6 82 -0.2 31.7
11:50 1003 29.62 832 24.57 2.3 36.2 84 -0.1 31.8
11:55 1003 29.62 832 24.57 2 35.5 86 -0.1 31.9
12:00 1003 29.62 833 24.6 0.7 33.3 89 -0.9 30.3
12:05 1003 29.62 833 24.6 -0.6 30.8 93 -1.6 29.1
12:10 1003 29.62 833 24.6 -1.1 29.9 95 -1.9 28.6
12:15 1003 29.62 833 24.6 -1.2 29.8 96 -1.8 28.7
12:20 1003 29.62 833 24.6 -1.1 30 96 -1.7 29
12:25 1003 29.62 833 24.6 -1.1 30.1 95 -1.7 28.9
12:30 1004 29.65 833 24.6 -1.1 30.1 96 -1.7 29
12:35 1004 29.65 833 24.6 -1 30.1 96 -1.7 29
12:40 1004 29.65 833 24.6 -1.1 30.1 96 -1.7 29
12:45 1004 29.65 833 24.6 -1.1 30.1 95 -1.7 28.9
12:50 1004 29.65 833 24.6 -1.1 30.1 96 -1.7 29
12:55 1004 29.65 833 24.6 -1.1 30.1 96 -1.6 29.1
13:00 1004 29.65 833 24.6 -0.9 30.3 97 -1.4 29.4
13:05 1004 29.65 833 24.6 -0.8 30.5 97 -1.3 29.7
13:10 1004 29.65 833 24.6 -1 30.2 96 -1.5 29.3
13:15 1004 29.65 833 24.6 -1.2 29.8 97 -1.7 29
13:20 1004 29.65 833 24.6 -1.3 29.7 97 -1.7 28.9
13:25 1004 29.65 834 24.63 -1.2 29.8 97 -1.6 29
13:30 1005 29.68 834 24.63 -1.4 29.6 96 -1.9 28.6
13:35 1005 29.68 834 24.63 -1.5 29.4 96 -2 28.4
13:40 1005 29.68 834 24.63 -1.5 29.4 96 -2 28.4
13:45 1005 29.68 834 24.63 -1.4 29.5 96 -1.9 28.5
13:50 1005 29.68 834 24.63 -1.4 29.4 95 -2.1 28.3
13:55 1005 29.68 834 24.63 -1.6 29.1 95 -2.4 27.7
14:00 1005 29.68 834 24.63 -1.9 28.6 95 -2.6 27.4
14:05 1005 29.68 835 24.66 -1.9 28.6 95 -2.6 27.3
14:10 1005 29.68 835 24.66 -2 28.4 96 -2.6 27.3
14:15 1005 29.68 835 24.66 -2 28.4 96 -2.6 27.4
14:20 1006 29.71 835 24.66 -1.8 28.7 95 -2.5 27.5
14:25 1006 29.71 835 24.66 -1.8 28.8 95 -2.4 27.6
14:30 1006 29.71 835 24.66 -1.8 28.8 95 -2.4 27.7
14:35 1006 29.71 835 24.66 -1.8 28.8 95 -2.5 27.5
14:40 1006 29.71 835 24.66 -1.8 28.7 95 -2.5 27.5
14:45 1006 29.71 835 24.66 -1.8 28.8 95 -2.6 27.4
14:50 1006 29.71 835 24.66 -1.8 28.8 95 -2.5 27.5
14:55 1006 29.71 835 24.66 -1.8 28.7 95 -2.5 27.5
15:00 1006 29.71 835 24.66 -1.7 28.9 95 -2.4 27.6
15:05 1006 29.71 836 24.69 -1.7 28.9 95 -2.5 27.6
15:10 1006 29.71 836 24.69 -1.7 29 95 -2.4 27.7
15:15 1007 29.74 836 24.69 -1.6 29.2 94 -2.3 27.8
15:20 1007 29.74 836 24.69 -1.6 29 95 -2.4 27.7
15:25 1007 29.74 836 24.69 -2 28.4 94 -2.9 26.8
15:30 1007 29.74 836 24.69 -2.3 27.8 95 -3.1 26.5
15:35 1007 29.74 836 24.69 -2.3 27.9 96 -2.9 26.8
15:40 1007 29.74 836 24.69 -2.2 28 95 -2.8 26.9
15:45 1007 29.74 837 24.72 -2.3 27.9 95 -2.9 26.7
15:50 1007 29.74 837 24.72 -2.3 27.8 95 -3 26.6
15:55 1008 29.77 837 24.72 -2.4 27.7 95 -3 26.5
16:00 1008 29.77 837 24.72 -2.5 27.5 96 -3.1 26.4
16:05 1008 29.77 837 24.72 -2.5 27.5 96 -3.1 26.5
16:10 1008 29.77 837 24.72 -2.4 27.6 96 -3 26.6
16:15 1008 29.77 837 24.72 -2.4 27.7 96 -3 26.6
16:20 1008 29.77 837 24.72 -2.6 27.3 95 -3.3 26
16:25 1008 29.77 837 24.72 -2.7 27.1 95 -3.4 25.9
16:30 1008 29.77 837 24.72 -2.8 27 95 -3.4 25.9
16:35 1008 29.77 837 24.72 -2.8 26.9 96 -3.4 25.9
16:40 1008 29.77 838 24.75 -2.8 27 96 -3.4 25.9
16:45 1008 29.77 838 24.75 -2.9 26.8 96 -3.5 25.7
16:50 1008 29.77 838 24.75 -2.9 26.8 96 -3.5 25.7
16:55 1009 29.8 838 24.75 -3 26.7 96 -3.5 25.6
17:00 1009 29.8 838 24.75 -2.9 26.7 96 -3.4 25.8
17:05 1009 29.8 838 24.75 -3 26.6 96 -3.5 25.7
17:10 1009 29.8 838 24.75 -3 26.6 97 -3.4 25.8
17:15 1009 29.8 838 24.75 -3 26.7 96 -3.5 25.8
17:20 1009 29.8 838 24.75 -2.9 26.8 97 -3.4 25.9
17:25 1009 29.8 838 24.75 -2.9 26.8 97 -3.4 26
17:30 1009 29.8 839 24.78 -2.9 26.8 97 -3.4 26
17:35 1009 29.8 839 24.78 -2.9 26.9 96 -3.3 26
17:40 1010 29.83 839 24.78 -2.9 26.9 97 -3.3 26
17:45 1010 29.83 839 24.78 -2.8 26.9 97 -3.3 26.1
17:50 1010 29.83 839 24.78 -2.9 26.8 97 -3.4 25.9
17:55 1010 29.83 839 24.78 -2.9 26.8 97 -3.4 26
18:00 1010 29.83 839 24.78 -2.9 26.8 97 -3.4 26
18:05 1010 29.83 839 24.78 -2.9 26.8 97 -3.3 26
18:10 1010 29.83 839 24.78 -2.9 26.8 97 -3.3 26
18:15 1010 29.83 840 24.81 -2.9 26.7 96 -3.4 25.9
18:20 1010 29.83 840 24.81 -3 26.7 97 -3.4 25.8
18:25 1011 29.85 840 24.81 -3 26.6 97 -3.5 25.7
18:30 1011 29.85 840 24.81 -3.1 26.5 97 -3.5 25.7
18:35 1011 29.85 840 24.81 -3.1 26.4 97 -3.6 25.6
18:40 1011 29.85 840 24.81 -3.1 26.4 97 -3.6 25.6
18:45 1011 29.85 840 24.81 -3.2 26.3 97 -3.7 25.4
18:50 1011 29.85 840 24.81 -3.2 26.2 97 -3.7 25.3
18:55 1011 29.85 840 24.81 -3.3 26 97 -3.8 25.2
19:00 1011 29.85 840 24.81 -3.3 26 97 -3.7 25.3
19:05 1011 29.85 840 24.81 -3.4 26 97 -3.8 25.2
19:10 1011 29.85 840 24.81 -3.4 25.9 97 -3.8 25.1
19:15 1011 29.85 840 24.81 -3.4 25.9 97 -3.8 25.1
19:20 1011 29.85 841 24.83 -3.4 25.8 97 -3.9 25
19:25 1011 29.85 841 24.83 -3.5 25.8 96 -4 24.8
19:30 1011 29.85 841 24.83 -3.5 25.7 96 -4 24.8
19:35 1011 29.85 841 24.83 -3.5 25.7 97 -4 24.9
19:40 1012 29.88 841 24.83 -3.5 25.6 97 -4 24.8
19:45 1012 29.88 841 24.83 -3.5 25.7 97 -3.9 24.9
19:50 1012 29.88 841 24.83 -3.5 25.7 97 -3.9 24.9
19:55 1012 29.88 841 24.83 -3.5 25.7 97 -4 24.9
20:00 1012 29.88 841 24.83 -3.5 25.7 96 -4 24.8
20:05 1012 29.88 841 24.83 -3.5 25.7 97 -4 24.8
20:10 1012 29.88 841 24.83 -3.5 25.7 96 -4 24.8
20:15 1012 29.88 841 24.83 -3.6 25.5 96 -4.1 24.6
20:20 1012 29.88 841 24.83 -3.6 25.5 96 -4.1 24.6
20:25 1012 29.88 841 24.83 -3.6 25.5 96 -4.1 24.5
20:30 1012 29.88 841 24.83 -3.7 25.3 96 -4.2 24.4
20:35 1012 29.88 841 24.83 -3.7 25.3 96 -4.2 24.4
20:40 1012 29.88 841 24.83 -3.8 25.2 96 -4.3 24.3
20:45 1012 29.88 841 24.83 -3.7 25.3 96 -4.2 24.4
20:50 1012 29.88 841 24.83 -3.7 25.3 96 -4.3 24.3
20:55 1012 29.88 841 24.83 -3.8 25.2 96 -4.3 24.2
21:00 1012 29.88 842 24.86 -3.8 25.1 96 -4.3 24.2
21:05 1012 29.88 842 24.86 -3.7 25.3 97 -4.2 24.4
21:10 1013 29.91 842 24.86 -3.7 25.4 96 -4.2 24.4
21:15 1013 29.91 842 24.86 -3.8 25.2 96 -4.4 24.2
21:20 1013 29.91 842 24.86 -3.9 24.9 96 -4.5 23.9
21:25 1013 29.91 842 24.86 -4 24.8 96 -4.6 23.8
21:30 1013 29.91 842 24.86 -4.1 24.6 96 -4.7 23.6
21:35 1013 29.91 842 24.86 -4.1 24.6 96 -4.7 23.6
21:40 1013 29.91 842 24.86 -4.1 24.6 96 -4.7 23.6
21:45 1013 29.91 842 24.86 -4.1 24.6 96 -4.7 23.6
21:50 1013 29.91 842 24.86 -4.1 24.7 96 -4.7 23.6
21:55 1013 29.91 842 24.86 -4.1 24.7 96 -4.7 23.6
22:00 1013 29.91 842 24.86 -4 24.7 96 -4.6 23.7
22:05 1013 29.91 842 24.86 -4.1 24.6 95 -4.8 23.4
22:10 1013 29.91 842 24.86 -4.3 24.2 95 -4.9 23.1
22:15 1013 29.91 842 24.86 -4.4 24.1 96 -5 23
22:20 1013 29.91 842 24.86 -4.5 24 95 -5.2 22.7
22:25 1013 29.91 842 24.86 -4.6 23.7 94 -5.4 22.4
22:30 1013 29.91 842 24.86 -5 23.1 94 -5.8 21.6
22:35 1013 29.91 842 24.86 -5.2 22.7 94 -6 21.2
22:40 1013 29.91 843 24.89 -5.3 22.4 94 -6.1 21
22:45 1013 29.91 843 24.89 -5.3 22.5 93 -6.2 20.8
22:50 1013 29.91 843 24.89 -5.3 22.5 92 -6.3 20.6
22:55 1013 29.91 843 24.89 -5.2 22.6 92 -6.3 20.7
23:00 1013 29.91 843 24.89 -5.2 22.7 92 -6.3 20.6
23:05 1013 29.91 843 24.89 -5.1 22.8 91 -6.4 20.5
23:10 1013 29.91 843 24.89 -5.1 22.7 91 -6.4 20.5
23:15 1014 29.94 843 24.89 -5.2 22.7 91 -6.4 20.5
23:20 1014 29.94 843 24.89 -5.2 22.7 91 -6.4 20.5
23:25 1014 29.94 843 24.89 -5.3 22.5 91 -6.5 20.3
23:30 1014 29.94 843 24.89 -5.3 22.5 91 -6.6 20.2
23:35 1014 29.94 843 24.89 -5.3 22.5 90 -6.8 19.8
23:40 1014 29.94 843 24.89 -5.6 21.9 89 -7.2 19.1
23:45 1014 29.94 843 24.89 -5.6 21.9 88 -7.2 19
23:50 1014 29.94 843 24.89 -5.7 21.7 88 -7.5 18.6
23:55 1014 29.94 843 24.89 -5.9 21.4 89 -7.5 18.5
24:00 1014 29.94 843 24.89 -6.2 20.9 87 -8 17.5